createdAt,value
2023-04-28T00:02:11.802Z,45.40
2023-04-28T00:04:38.732Z,45.70
2023-04-28T00:07:05.980Z,46.00
2023-04-28T00:09:32.847Z,46.30
2023-04-28T00:11:59.968Z,46.70
2023-04-28T00:14:26.806Z,46.90
2023-04-28T00:16:56.918Z,47.20
2023-04-28T00:19:23.867Z,47.40
2023-04-28T00:21:50.976Z,47.50
2023-04-28T00:24:17.919Z,47.70
2023-04-28T00:26:44.775Z,48.00
2023-04-28T00:29:11.547Z,49.00
2023-04-28T00:31:38.501Z,48.30
2023-04-28T00:34:05.399Z,48.50
2023-04-28T00:36:33.066Z,48.70
2023-04-28T00:38:59.803Z,48.80
2023-04-28T00:41:26.624Z,49.00
2023-04-28T00:43:53.541Z,49.20
2023-04-28T00:46:29.099Z,49.30
2023-04-28T00:48:57.486Z,49.30
2023-04-28T00:51:24.498Z,49.30
2023-04-28T00:53:51.852Z,50.40
2023-04-28T00:56:19.014Z,49.60
2023-04-28T00:58:45.674Z,49.70
2023-04-28T01:01:12.400Z,50.00
2023-04-28T01:03:40.771Z,50.30
2023-04-28T01:06:09.387Z,50.30
2023-04-28T01:08:38.135Z,50.50
2023-04-28T01:11:05.145Z,50.80
2023-04-28T01:13:31.965Z,50.80
2023-04-28T01:15:59.100Z,51.10
2023-04-28T01:18:26.354Z,51.20
2023-04-28T01:20:53.205Z,51.40
2023-04-28T01:23:39.025Z,51.60
2023-04-28T01:26:05.993Z,51.80
2023-04-28T01:28:32.740Z,51.80
2023-04-28T01:30:59.668Z,52.00
2023-04-28T01:33:26.606Z,52.10
2023-04-28T01:35:58.094Z,52.40
2023-04-28T01:38:24.953Z,52.70
2023-04-28T01:40:51.762Z,52.80
2023-04-28T01:43:21.803Z,52.90
2023-04-28T01:45:57.287Z,53.10
2023-04-28T01:48:26.749Z,53.20
2023-04-28T01:51:16.710Z,53.20
2023-04-28T01:54:41.645Z,53.30
2023-04-28T01:57:22.384Z,53.30
2023-04-28T01:59:49.393Z,53.20
2023-04-28T02:02:16.372Z,53.10
2023-04-28T02:04:43.328Z,53.00
2023-04-28T02:07:10.290Z,53.10
2023-04-28T02:09:37.075Z,52.90
2023-04-28T02:12:04.047Z,52.80
2023-04-28T02:14:34.072Z,52.80
2023-04-28T02:17:00.887Z,52.70
2023-04-28T02:19:27.634Z,52.60
2023-04-28T02:21:54.330Z,52.60
2023-04-28T02:24:21.236Z,52.50
2023-04-28T02:26:48.214Z,52.40
2023-04-28T02:29:15.448Z,52.40
2023-04-28T02:31:42.282Z,52.30
2023-04-28T02:34:09.026Z,52.30
2023-04-28T02:36:35.954Z,52.20
2023-04-28T02:39:02.643Z,52.00
2023-04-28T02:41:31.151Z,51.90
2023-04-28T02:43:57.927Z,51.80
2023-04-28T02:46:24.672Z,51.70
2023-04-28T02:48:51.477Z,52.50
2023-04-28T02:51:18.140Z,51.60
2023-04-28T02:53:44.871Z,51.60
2023-04-28T02:56:11.621Z,51.50
2023-04-28T02:58:38.417Z,51.50
2023-04-28T03:01:05.198Z,51.50
2023-04-28T03:03:32.747Z,51.50
2023-04-28T03:05:59.706Z,51.50
2023-04-28T03:08:26.806Z,51.40
2023-04-28T03:10:53.550Z,52.20
2023-04-28T03:13:20.350Z,51.30
2023-04-28T03:15:47.056Z,52.10
2023-04-28T03:18:13.784Z,51.10
2023-04-28T03:20:40.508Z,51.10
2023-04-28T03:23:07.490Z,51.00
2023-04-28T03:25:34.232Z,51.00
2023-04-28T03:28:05.437Z,50.90
2023-04-28T03:30:32.414Z,51.00
2023-04-28T03:32:59.389Z,51.00
2023-04-28T03:35:26.627Z,51.10
2023-04-28T03:37:58.662Z,51.30
2023-04-28T03:40:25.866Z,51.40
2023-04-28T03:42:52.798Z,51.40
2023-04-28T03:45:35.788Z,51.40
2023-04-28T03:48:36.801Z,51.50
2023-04-28T03:51:03.739Z,51.50
2023-04-28T03:53:32.478Z,51.60
2023-04-28T03:55:59.238Z,51.70
2023-04-28T03:58:26.107Z,51.80
2023-04-28T04:00:53.036Z,52.00
2023-04-28T04:03:23.183Z,52.10
2023-04-28T04:05:50.394Z,52.20
2023-04-28T04:08:17.351Z,52.30
2023-04-28T04:10:44.095Z,52.40
2023-04-28T04:13:10.970Z,52.50
2023-04-28T04:15:37.791Z,52.70
2023-04-28T04:18:04.808Z,52.80
2023-04-28T04:20:31.695Z,52.90
2023-04-28T04:22:58.406Z,53.00
2023-04-28T04:25:25.294Z,53.00
2023-04-28T04:27:52.042Z,53.20
2023-04-28T04:30:18.827Z,53.20
2023-04-28T04:32:45.544Z,53.30
2023-04-28T04:35:12.532Z,53.30
2023-04-28T04:37:42.450Z,53.50
2023-04-28T04:40:09.822Z,53.50
2023-04-28T04:42:39.797Z,53.60
2023-04-28T04:45:36.498Z,53.70
2023-04-28T04:48:03.838Z,53.90
2023-04-28T04:50:30.614Z,54.00
2023-04-28T04:52:58.273Z,54.10
2023-04-28T04:55:25.052Z,54.20
2023-04-28T04:57:52.539Z,54.50
2023-04-28T05:00:19.757Z,54.60
2023-04-28T05:02:46.611Z,54.80
2023-04-28T05:07:46.823Z,55.10
2023-04-28T05:10:13.579Z,55.30
2023-04-28T05:12:40.597Z,55.60
2023-04-28T05:15:08.163Z,55.90
2023-04-28T05:17:35.427Z,56.30
2023-04-28T05:20:17.675Z,56.70
2023-04-28T05:22:44.334Z,57.70
2023-04-28T05:25:11.300Z,58.30
2023-04-28T05:27:39.631Z,59.10
2023-04-28T05:30:08.828Z,60.00
2023-04-28T05:32:36.745Z,60.70
2023-04-28T05:35:03.950Z,61.30
2023-04-28T05:37:30.848Z,61.80
2023-04-28T05:39:57.570Z,62.20
2023-04-28T05:42:24.379Z,62.80
2023-04-28T05:44:54.009Z,63.20
2023-04-28T05:47:29.118Z,63.20
2023-04-28T05:50:08.956Z,63.10
2023-04-28T05:52:35.728Z,62.90
2023-04-28T05:55:02.590Z,63.10
2023-04-28T05:57:32.003Z,63.90
2023-04-28T06:00:00.651Z,64.90
2023-04-28T06:05:05.580Z,68.70
2023-04-28T06:07:35.601Z,69.50
2023-04-28T06:52:54.898Z,77.90
2023-04-28T06:55:21.788Z,78.90
2023-04-28T07:01:50.965Z,81.60
2023-04-28T07:04:28.699Z,79.40
2023-04-28T07:06:59.112Z,78.10
2023-04-28T07:09:31.358Z,76.70
2023-04-28T07:11:58.383Z,75.00
2023-04-28T07:14:34.912Z,74.40
2023-04-28T07:17:01.881Z,73.60
2023-04-28T07:19:28.855Z,71.40
2023-04-28T07:22:08.008Z,70.50
2023-04-28T07:24:37.638Z,70.30
2023-04-28T07:27:04.704Z,71.10
2023-04-28T07:29:34.266Z,72.30
2023-04-28T07:35:59.289Z,73.20
2023-04-28T07:38:26.285Z,73.50
2023-04-28T07:40:53.619Z,74.10
2023-04-28T07:43:28.340Z,74.80
2023-04-28T07:45:55.281Z,76.60
2023-04-28T07:48:25.105Z,76.90
2023-04-28T07:50:52.098Z,78.10
2023-04-28T08:17:56.192Z,80.20
2023-04-28T08:54:29.766Z,82.60
2023-04-28T08:56:36.237Z,84.80
2023-04-28T08:59:38.856Z,85.20
2023-04-28T09:02:12.503Z,85.70
2023-04-28T09:08:12.180Z,85.90
2023-04-28T09:10:39.292Z,86.10
2023-04-28T09:13:06.408Z,86.20
2023-04-28T09:15:38.349Z,85.60
2023-04-28T09:18:06.969Z,84.70
2023-04-28T09:20:35.580Z,85.60
2023-04-28T09:23:17.504Z,85.70
2023-04-28T09:26:03.588Z,85.40
2023-04-28T09:28:31.806Z,84.40
2023-04-28T09:30:59.071Z,83.80
2023-04-28T09:33:26.341Z,82.80
2023-04-28T09:35:53.538Z,82.80
2023-04-28T09:38:21.777Z,82.50
2023-04-28T09:41:02.234Z,81.80
2023-04-28T09:43:34.339Z,81.50
2023-04-28T09:46:03.637Z,80.40
2023-04-28T09:48:36.151Z,80.20
2023-04-28T09:51:06.137Z,80.20
2023-04-28T09:53:33.990Z,81.00
2023-04-28T09:56:03.538Z,81.00
2023-04-28T09:58:33.026Z,80.40
2023-04-28T10:01:02.226Z,78.40
2023-04-28T10:03:31.517Z,78.80
2023-04-28T10:05:59.718Z,79.50
2023-04-28T10:08:28.001Z,79.10
2023-04-28T10:10:55.478Z,79.70
2023-04-28T10:13:23.312Z,80.00
2023-04-28T10:15:51.261Z,79.70
2023-04-28T10:18:18.588Z,79.40
2023-04-28T10:20:48.639Z,80.90
2023-04-28T10:23:47.059Z,82.30
2023-04-28T10:26:16.447Z,80.40
2023-04-28T10:28:51.971Z,79.70
2023-04-28T10:31:23.626Z,75.00
2023-04-28T10:33:50.856Z,76.70
2023-04-28T10:36:52.563Z,78.00
2023-04-28T10:39:20.100Z,78.50
2023-04-28T10:42:04.500Z,78.60
2023-04-28T10:44:31.968Z,76.20
2023-04-28T10:47:06.761Z,76.20
2023-04-28T10:49:56.329Z,74.80
2023-04-28T10:52:41.150Z,75.60
2023-04-28T10:55:27.329Z,77.80
2023-04-28T10:58:16.204Z,80.00
2023-04-28T11:00:52.317Z,82.60
2023-04-28T11:03:41.086Z,86.10
2023-04-28T11:06:28.409Z,90.50
2023-04-28T11:08:57.614Z,92.10
2023-04-28T11:11:32.772Z,91.30
2023-04-28T11:14:20.544Z,91.50
2023-04-28T11:17:01.006Z,89.60
2023-04-28T11:19:30.797Z,90.10
2023-04-28T11:21:59.729Z,90.20
2023-04-28T11:24:30.948Z,91.30
2023-04-28T11:26:59.189Z,93.10
2023-04-28T11:29:40.584Z,93.20
2023-04-28T11:32:09.749Z,92.90
2023-04-28T11:34:37.552Z,93.50
2023-04-28T11:37:07.129Z,93.60
2023-04-28T11:39:34.890Z,92.20
2023-04-28T11:42:10.786Z,92.20
2023-04-28T11:44:38.040Z,92.40
2023-04-28T11:47:06.403Z,93.80
2023-04-28T11:49:43.515Z,94.40
2023-04-28T11:52:11.585Z,95.60
2023-04-28T11:54:39.224Z,96.60
2023-04-28T11:57:06.657Z,97.50
2023-04-28T11:59:37.696Z,98.70
2023-04-28T12:02:07.477Z,98.80
2023-04-28T12:04:39.461Z,98.50
2023-04-28T12:07:13.379Z,98.60
2023-04-28T12:09:42.844Z,99.70
2023-04-28T12:12:17.281Z,99.90
2023-04-28T12:14:58.560Z,99.90
2023-04-28T12:17:26.983Z,99.90
2023-04-28T12:19:55.333Z,99.90
2023-04-28T12:22:55.419Z,99.90
2023-04-28T12:25:22.163Z,99.90
2023-04-28T12:28:08.497Z,99.90
2023-04-28T12:30:42.100Z,99.90
2023-04-28T12:33:26.329Z,99.90
2023-04-28T12:35:56.572Z,99.90
2023-04-28T12:38:24.798Z,99.90
2023-04-28T12:40:51.817Z,99.90
2023-04-28T12:43:18.931Z,99.90
2023-04-28T12:45:45.742Z,99.90
2023-04-28T12:48:12.591Z,99.90
2023-04-28T12:50:39.481Z,99.90
2023-04-28T12:53:06.592Z,99.90
2023-04-28T12:55:33.481Z,99.90
2023-04-28T12:58:00.235Z,99.90
2023-04-28T13:00:27.231Z,99.90
2023-04-28T13:02:54.362Z,99.90
2023-04-28T13:05:21.399Z,99.90
2023-04-28T13:07:49.826Z,99.90
2023-04-28T13:10:18.279Z,99.90
2023-04-28T13:12:45.005Z,99.90
2023-04-28T13:15:12.079Z,99.90
2023-04-28T13:17:39.274Z,99.90
2023-04-28T13:20:06.906Z,99.90
2023-04-28T13:22:33.905Z,99.90
2023-04-28T13:25:00.607Z,99.90
2023-04-28T13:27:30.319Z,99.90
2023-04-28T13:29:59.431Z,99.90
2023-04-28T13:32:28.240Z,99.90
2023-04-28T13:34:55.530Z,99.90
2023-04-28T13:37:22.327Z,99.90
2023-04-28T13:39:49.193Z,99.90
2023-04-28T13:42:16.204Z,99.90
2023-04-28T13:44:43.359Z,99.90
2023-04-28T13:47:53.347Z,99.90
2023-04-28T13:50:20.188Z,99.90
2023-04-28T13:52:47.206Z,99.90
2023-04-28T13:55:14.010Z,99.90
2023-04-28T13:57:41.082Z,99.90
2023-04-28T14:00:08.521Z,99.90
2023-04-28T14:02:36.573Z,99.90
2023-04-28T14:05:03.486Z,99.90
2023-04-28T14:07:30.257Z,99.90
2023-04-28T14:09:57.164Z,99.90
2023-04-28T14:12:24.020Z,99.90
2023-04-28T14:14:50.782Z,99.90
2023-04-28T14:17:17.552Z,99.90
2023-04-28T14:19:44.750Z,99.90
2023-04-28T14:22:11.801Z,99.90
2023-04-28T14:24:38.540Z,99.90
2023-04-28T14:27:05.453Z,99.90
2023-04-28T14:29:32.592Z,99.90
2023-04-28T14:31:59.376Z,99.90
2023-04-28T14:34:26.088Z,99.90
2023-04-28T14:36:52.965Z,99.90
2023-04-28T14:39:19.771Z,99.90
2023-04-28T14:41:46.932Z,99.90
2023-04-28T14:44:13.640Z,99.90
2023-04-28T14:46:41.091Z,99.90
2023-04-28T14:49:09.332Z,99.90
2023-04-28T14:51:36.261Z,99.90
2023-04-28T14:54:03.504Z,99.90
2023-04-28T14:56:31.608Z,99.90
2023-04-28T14:58:59.532Z,99.90
2023-04-28T15:01:26.530Z,99.90
2023-04-28T15:03:53.339Z,99.90
2023-04-28T15:06:20.181Z,99.90
2023-04-28T15:08:46.966Z,99.90
2023-04-28T15:11:13.828Z,99.90
2023-04-28T15:13:43.041Z,99.90
2023-04-28T15:16:10.253Z,99.90
2023-04-28T15:18:37.218Z,99.90
2023-04-28T15:21:04.216Z,99.90
2023-04-28T15:23:31.693Z,99.90
2023-04-28T15:25:58.558Z,99.90
2023-04-28T15:28:25.345Z,99.90
2023-04-28T15:30:52.163Z,99.90
2023-04-28T15:33:18.943Z,99.90
2023-04-28T15:35:46.670Z,99.90
2023-04-28T15:38:13.719Z,99.90
2023-04-28T15:40:41.711Z,99.90
2023-04-28T15:43:08.729Z,99.90
2023-04-28T15:45:36.556Z,99.90
2023-04-28T15:48:04.952Z,99.90
2023-04-28T15:50:31.890Z,99.90
2023-04-28T15:52:58.623Z,99.90
2023-04-28T15:55:25.722Z,99.90
2023-04-28T15:57:52.948Z,99.90
2023-04-28T16:00:19.928Z,99.90
2023-04-28T16:02:47.054Z,99.90
2023-04-28T16:05:14.365Z,99.90
2023-04-28T16:07:41.313Z,99.90
2023-04-28T16:10:09.462Z,99.90
2023-04-28T16:12:36.717Z,99.90
2023-04-28T16:15:04.126Z,99.90
2023-04-28T16:17:31.208Z,99.90
2023-04-28T16:19:58.266Z,99.90
2023-04-28T16:22:28.022Z,99.90
2023-04-28T16:24:54.864Z,99.90
2023-04-28T16:27:21.967Z,99.90
2023-04-28T16:29:48.753Z,99.90
2023-04-28T16:32:15.797Z,99.90
2023-04-28T16:34:43.274Z,99.90
2023-04-28T16:37:11.551Z,99.90
2023-04-28T16:39:38.493Z,99.90
2023-04-28T16:42:05.789Z,99.90
2023-04-28T16:44:32.728Z,99.90
2023-04-28T16:46:59.786Z,99.90
2023-04-28T16:49:26.626Z,99.90
2023-04-28T16:52:01.627Z,99.90
2023-04-28T16:54:29.758Z,99.90
2023-04-28T16:56:57.680Z,99.90
2023-04-28T16:59:34.170Z,99.90
2023-04-28T17:02:02.013Z,99.90
2023-04-28T17:04:28.952Z,99.90
2023-04-28T17:06:55.989Z,99.90
2023-04-28T17:09:22.975Z,99.90
2023-04-28T17:11:50.402Z,99.90
2023-04-28T17:14:17.158Z,99.90
2023-04-28T17:16:43.934Z,99.90
2023-04-28T17:19:11.413Z,99.90
2023-04-28T17:21:38.686Z,99.90
2023-04-28T17:24:05.756Z,99.90
2023-04-28T17:26:32.561Z,99.90
2023-04-28T17:28:59.968Z,99.90
2023-04-28T17:31:28.604Z,99.90
2023-04-28T17:33:57.695Z,99.90
2023-04-28T17:36:26.962Z,99.90
2023-04-28T17:38:54.333Z,99.90
2023-04-28T17:41:21.678Z,99.90
2023-04-28T17:43:48.968Z,99.90
2023-04-28T17:46:16.076Z,99.90
2023-04-28T17:48:43.202Z,99.90
2023-04-28T17:51:10.051Z,99.90
2023-04-28T17:53:37.874Z,99.90
2023-04-28T17:56:07.260Z,99.90
2023-04-28T17:58:34.071Z,99.90
2023-04-28T18:01:05.366Z,99.90
2023-04-28T18:03:33.989Z,99.90
2023-04-28T18:06:01.311Z,99.90
2023-04-28T18:08:28.233Z,99.90
2023-04-28T18:11:09.125Z,99.90
2023-04-28T18:13:35.968Z,99.90
2023-04-28T18:16:04.562Z,99.90
2023-04-28T18:18:35.349Z,99.90
2023-04-28T18:21:02.933Z,99.90
2023-04-28T18:23:30.671Z,99.90
2023-04-28T18:25:57.488Z,99.90
2023-04-28T18:28:24.525Z,99.90
2023-04-28T18:30:51.340Z,99.90
2023-04-28T18:33:23.268Z,99.90
2023-04-28T18:35:59.061Z,99.90
2023-04-28T18:38:26.119Z,99.90
2023-04-28T18:40:52.793Z,99.90
2023-04-28T18:43:21.661Z,99.90
2023-04-28T18:45:48.491Z,99.90
2023-04-28T18:48:15.185Z,99.90
2023-04-28T18:50:42.655Z,99.90
2023-04-28T18:53:10.838Z,99.90
2023-04-28T18:55:37.849Z,99.90
2023-04-28T18:58:04.796Z,99.90
2023-04-28T19:00:32.851Z,99.90
2023-04-28T19:03:00.264Z,99.90
2023-04-28T19:05:27.197Z,99.90
2023-04-28T19:07:53.961Z,99.90
2023-04-28T19:10:20.704Z,99.90
2023-04-28T19:12:47.447Z,99.90
2023-04-28T19:15:14.353Z,99.90
2023-04-28T19:17:41.235Z,99.90
2023-04-28T19:20:08.986Z,99.90
2023-04-28T19:22:38.655Z,99.90
2023-04-28T19:25:06.799Z,99.90
2023-04-28T19:27:35.569Z,99.90
2023-04-28T19:30:04.023Z,99.90
2023-04-28T19:32:31.020Z,99.90
2023-04-28T19:34:57.956Z,99.90
2023-04-28T19:37:25.532Z,99.90
2023-04-28T19:39:52.580Z,99.90
2023-04-28T19:42:19.751Z,99.90
2023-04-28T19:44:47.448Z,99.90
2023-04-28T19:47:22.598Z,99.90
2023-04-28T19:49:50.988Z,99.90
2023-04-28T19:52:20.680Z,99.90
2023-04-28T19:54:50.588Z,99.90
2023-04-28T19:57:18.820Z,99.90
2023-04-28T19:59:46.483Z,99.90
2023-04-28T20:02:13.303Z,99.90
2023-04-28T20:04:40.859Z,99.90
2023-04-28T20:07:09.253Z,99.90
2023-04-28T20:09:38.913Z,99.90
2023-04-28T20:12:07.806Z,99.90
2023-04-28T20:14:35.616Z,99.90
2023-04-28T20:17:03.791Z,99.90
2023-04-28T20:19:32.884Z,99.90
2023-04-28T20:22:03.974Z,99.90
2023-04-28T20:24:34.640Z,99.90
2023-04-28T20:27:02.382Z,99.90
2023-04-28T20:29:35.016Z,99.90
2023-04-28T20:32:34.109Z,99.90
2023-04-28T20:35:02.869Z,99.90
2023-04-28T20:37:30.047Z,99.90
2023-04-28T20:39:57.101Z,99.90
2023-04-28T20:42:23.957Z,99.90
2023-04-28T20:44:50.994Z,99.90
2023-04-28T20:47:17.962Z,99.90
2023-04-28T20:49:44.681Z,99.90
2023-04-28T20:52:11.421Z,99.90
2023-04-28T20:54:38.582Z,99.90
2023-04-28T20:57:05.428Z,99.90
2023-04-28T20:59:33.035Z,99.90
2023-04-28T21:02:00.451Z,99.90
2023-04-28T21:04:28.445Z,99.90
2023-04-28T21:06:55.639Z,99.90
2023-04-28T21:09:25.025Z,99.90
2023-04-28T21:11:55.028Z,99.90
2023-04-28T21:14:22.225Z,99.90
2023-04-28T21:16:48.992Z,99.90
2023-04-28T21:19:16.096Z,99.90
2023-04-28T21:21:42.760Z,99.90
2023-04-28T21:24:10.241Z,99.90
2023-04-28T21:26:36.999Z,99.90
2023-04-28T21:29:03.784Z,99.90
2023-04-28T21:31:36.056Z,99.90
2023-04-28T21:34:02.812Z,99.90
2023-04-28T21:36:30.642Z,99.90
2023-04-28T21:38:57.356Z,99.90
2023-04-28T21:41:25.389Z,99.90
2023-04-28T21:43:52.707Z,99.90
2023-04-28T21:46:19.483Z,99.90
2023-04-28T21:48:46.614Z,99.90
2023-04-28T21:51:14.504Z,99.90
2023-04-28T21:53:41.391Z,99.90
2023-04-28T21:56:08.233Z,99.90
2023-04-28T21:58:35.826Z,99.90
2023-04-28T22:01:04.405Z,99.90
2023-04-28T22:03:34.923Z,99.90
2023-04-28T22:06:02.572Z,99.90
2023-04-28T22:08:30.961Z,99.90
2023-04-28T22:10:58.117Z,99.90
2023-04-28T22:13:25.012Z,99.90
2023-04-28T22:15:52.200Z,99.90
2023-04-28T22:18:19.420Z,99.90
2023-04-28T22:20:46.352Z,99.90
2023-04-28T22:23:13.173Z,99.90
2023-04-28T22:25:39.870Z,99.90
2023-04-28T22:28:06.784Z,99.90
2023-04-28T22:30:33.887Z,99.90
2023-04-28T22:33:00.741Z,99.90
2023-04-28T22:35:27.986Z,99.90
2023-04-28T22:37:54.642Z,99.90
2023-04-28T22:40:21.652Z,99.90
2023-04-28T22:42:48.921Z,99.90
2023-04-28T22:45:15.596Z,99.90
2023-04-28T22:47:42.836Z,99.90
2023-04-28T22:50:10.969Z,99.90
2023-04-28T22:52:38.013Z,99.90
2023-04-28T22:55:06.420Z,99.90
2023-04-28T22:57:33.474Z,99.90
2023-04-28T23:00:00.273Z,99.90
2023-04-28T23:02:27.158Z,99.90
2023-04-28T23:05:02.103Z,99.90
2023-04-28T23:07:29.003Z,99.90
2023-04-28T23:09:56.057Z,99.90
2023-04-28T23:12:22.770Z,99.90
2023-04-28T23:14:49.521Z,99.90
2023-04-28T23:17:16.379Z,99.90
2023-04-28T23:19:43.180Z,99.90
2023-04-28T23:22:09.988Z,99.90
2023-04-28T23:24:38.056Z,99.90
2023-04-28T23:27:05.338Z,99.90
2023-04-28T23:29:32.871Z,99.90
2023-04-28T23:31:59.790Z,99.90
2023-04-28T23:34:26.934Z,99.90
2023-04-28T23:36:53.870Z,99.90
2023-04-28T23:39:20.647Z,99.90
2023-04-28T23:41:47.396Z,99.90
2023-04-28T23:44:14.202Z,99.90
2023-04-28T23:46:40.942Z,99.90
2023-04-28T23:49:07.618Z,99.90
2023-04-28T23:51:34.336Z,99.90
2023-04-28T23:54:01.847Z,99.90
2023-04-28T23:56:29.081Z,99.90
2023-04-28T23:58:56.097Z,99.90
